Time;durP1;ratioP1;P1;durP2;ratioP2;P2;SDS_P1;SDS_P2;PMS_P1;PMS_P2;Temp;Humidity;BMP_temperature;BMP_pressure;BME280_temperature;BME280_humidity;BME280_pressure;Samples;Min_cycle;Max_cycle;Signal;HPM_P1;HPM_P2
2022/09/11 00:01:02;;;;;;;0.17;0.17;;;17.30;99.90;;;;;;4988125;28;20029;-75
2022/09/11 00:03:30;;;;;;;0.20;0.20;;;17.20;99.90;;;;;;4981305;28;20033;-75
2022/09/11 00:06:05;;;;;;;0.25;0.25;;;17.20;99.90;;;;;;4994065;28;20471;-75
2022/09/11 00:08:36;;;;;;;0.10;0.10;;;17.10;99.90;;;;;;4988655;28;20134;-76
2022/09/11 00:11:08;;;;;;;0.35;0.35;;;17.10;99.90;;;;;;4992535;28;20022;-75
2022/09/11 00:13:40;;;;;;;0.20;0.20;;;17.10;99.90;;;;;;4994173;28;20058;-75
2022/09/11 00:16:25;;;;;;;0.20;0.20;;;17.10;99.90;;;;;;4991849;28;20031;-77
2022/09/11 00:18:56;;;;;;;0.10;0.10;;;17.00;99.90;;;;;;4984266;28;20072;-76
2022/09/11 00:21:25;;;;;;;0.28;0.28;;;17.00;99.90;;;;;;4980905;28;20050;-75
2022/09/11 00:23:52;;;;;;;0.20;0.20;;;17.00;99.90;;;;;;4996144;28;20023;-75
2022/09/11 00:26:21;;;;;;;0.20;0.20;;;16.90;99.90;;;;;;4980182;28;20031;-74
2022/09/11 00:28:47;;;;;;;0.10;0.10;;;16.90;99.90;;;;;;4980399;28;20034;-75
2022/09/11 00:31:20;;;;;;;0.15;0.15;;;16.90;99.90;;;;;;4982629;28;20031;-74
2022/09/11 00:33:46;;;;;;;;;;;16.80;99.90;;;;;;4980370;28;20051;-75
2022/09/11 00:36:20;;;;;;;0.13;0.13;;;16.80;99.90;;;;;;4979055;28;19949;-75
2022/09/11 00:38:49;;;;;;;0.90;0.65;;;16.80;99.90;;;;;;4982298;28;20033;-75
2022/09/11 00:41:21;;;;;;;0.17;0.17;;;16.80;99.90;;;;;;4986440;28;20439;-75
2022/09/11 00:44:03;;;;;;;0.32;0.32;;;16.80;99.90;;;;;;4994622;28;20354;-75
2022/09/11 00:46:39;;;;;;;0.30;0.30;;;16.80;99.90;;;;;;4979613;28;20030;-75
2022/09/11 00:49:23;;;;;;;0.17;0.17;;;16.70;99.90;;;;;;4980274;28;20305;-75
2022/09/11 00:51:56;;;;;;;0.20;0.20;;;16.70;99.90;;;;;;4980967;28;20038;-75
2022/09/11 00:54:34;;;;;;;0.20;0.20;;;16.70;99.90;;;;;;4980198;28;20062;-75
2022/09/11 00:57:06;;;;;;;0.20;0.20;;;16.60;99.90;;;;;;4975887;28;20026;-75
2022/09/11 00:59:38;;;;;;;0.40;0.40;;;16.60;99.90;;;;;;4996258;28;20033;-75
2022/09/11 01:02:04;;;;;;;0.40;0.40;;;16.60;99.90;;;;;;4980797;28;20084;-74
2022/09/11 01:04:31;;;;;;;0.22;0.22;;;16.70;99.90;;;;;;4982690;28;20110;-77
2022/09/11 01:06:58;;;;;;;2.42;0.75;;;16.70;99.90;;;;;;4979422;28;20054;-75
2022/09/11 01:09:29;;;;;;;0.17;0.17;;;16.70;99.90;;;;;;4980404;28;20030;-75
2022/09/11 01:12:57;;;;;;;0.10;0.10;;;16.60;99.90;;;;;;4980910;28;20034;-75
2022/09/11 01:15:52;;;;;;;3.10;2.67;;;16.60;99.90;;;;;;4964383;28;20037;-74
2022/09/11 01:18:36;;;;;;;0.20;0.20;;;16.70;99.90;;;;;;4979167;28;20129;-75
2022/09/11 01:21:34;;;;;;;0.73;0.73;;;16.70;99.90;;;;;;4979134;28;20522;-75
2022/09/11 01:24:28;;;;;;;0.20;0.20;;;16.70;99.90;;;;;;4982804;28;20671;-76
2022/09/11 01:27:31;;;;;;;0.38;0.38;;;16.80;99.90;;;;;;4978418;28;20027;-76
2022/09/11 01:30:01;;;;;;;0.10;0.10;;;16.80;99.90;;;;;;4977445;28;20022;-75
2022/09/11 01:32:54;;;;;;;0.20;0.20;;;16.80;99.90;;;;;;4977695;28;20683;-75
2022/09/11 01:35:31;;;;;;;0.10;0.10;;;16.80;99.90;;;;;;4969003;28;20058;-75
2022/09/11 01:38:04;;;;;;;0.28;0.28;;;16.80;99.90;;;;;;4977745;28;20058;-75
2022/09/11 01:40:48;;;;;;;0.40;0.40;;;16.80;99.90;;;;;;4977812;28;20053;-74
2022/09/11 01:43:19;;;;;;;0.15;0.15;;;16.80;99.90;;;;;;4990650;28;20094;-75
2022/09/11 01:45:50;;;;;;;0.40;0.40;;;16.70;99.90;;;;;;4976588;28;20130;-75
2022/09/11 01:48:21;;;;;;;0.32;0.32;;;16.70;99.90;;;;;;4978899;28;20019;-75
2022/09/11 01:50:53;;;;;;;0.20;0.20;;;16.70;99.90;;;;;;4982356;28;20038;-74
2022/09/11 01:53:27;;;;;;;0.70;0.70;;;16.70;99.90;;;;;;4976161;28;20029;-76
2022/09/11 01:56:04;;;;;;;0.10;0.10;;;16.60;99.90;;;;;;4979817;28;20102;-75
2022/09/11 01:58:32;;;;;;;0.75;0.75;;;16.60;99.90;;;;;;4979847;28;20038;-75
2022/09/11 02:01:11;;;;;;;0.50;0.50;;;16.60;99.90;;;;;;4985989;28;20089;-76
2022/09/11 02:03:41;;;;;;;0.20;0.20;;;16.60;99.90;;;;;;4980094;28;20034;-75
2022/09/11 02:06:17;;;;;;;0.10;0.10;;;16.50;99.90;;;;;;4979861;28;20026;-76
2022/09/11 02:08:53;;;;;;;0.30;0.30;;;16.50;99.90;;;;;;4979979;28;20658;-74
2022/09/11 02:11:19;;;;;;;0.20;0.20;;;16.50;99.90;;;;;;4995717;28;20046;-75
2022/09/11 02:13:48;;;;;;;0.10;0.10;;;16.50;99.90;;;;;;4974711;28;20029;-75
2022/09/11 02:16:29;;;;;;;0.60;0.60;;;16.50;99.90;;;;;;4980808;28;20030;-75
2022/09/11 02:19:05;;;;;;;0.13;0.13;;;16.50;99.90;;;;;;4979646;28;20341;-76
2022/09/11 02:21:32;;;;;;;0.17;0.17;;;16.50;99.90;;;;;;4978051;28;20074;-76
2022/09/11 02:24:01;;;;;;;0.65;0.65;;;16.50;99.90;;;;;;4978533;28;20038;-76
2022/09/11 02:26:29;;;;;;;0.10;0.10;;;16.50;99.90;;;;;;4978084;28;20022;-77
2022/09/11 02:28:57;;;;;;;0.17;0.17;;;16.50;99.90;;;;;;4996534;28;20038;-76
2022/09/11 02:31:26;;;;;;;0.45;0.45;;;16.50;99.90;;;;;;4976136;28;20030;-76
2022/09/11 02:33:54;;;;;;;0.25;0.25;;;16.50;99.90;;;;;;4978184;28;20045;-76
2022/09/11 02:36:39;;;;;;;0.25;0.25;;;16.50;99.90;;;;;;4977743;28;20448;-76
2022/09/11 02:39:13;;;;;;;0.38;0.38;;;16.50;99.90;;;;;;4992509;28;20033;-76
2022/09/11 02:42:09;;;;;;;0.50;0.50;;;16.50;99.90;;;;;;4982943;28;20018;-76
2022/09/11 02:45:13;;;;;;;0.40;0.40;;;16.50;99.90;;;;;;4980165;28;20031;-76
2022/09/11 02:47:44;;;;;;;0.50;0.47;;;16.50;99.90;;;;;;4979444;28;20053;-76
2022/09/11 02:50:29;;;;;;;0.30;0.30;;;16.60;99.90;;;;;;4977639;28;20061;-76
2022/09/11 02:53:07;;;;;;;0.90;0.85;;;16.60;99.90;;;;;;4979656;28;20026;-76
2022/09/11 02:55:50;;;;;;;0.73;0.63;;;16.50;99.90;;;;;;4976066;28;20034;-76
2022/09/11 02:58:38;;;;;;;0.20;0.20;;;16.60;99.90;;;;;;4979744;28;20030;-75
2022/09/11 03:01:07;;;;;;;0.30;0.30;;;16.50;99.90;;;;;;4997242;28;20042;-77
2022/09/11 03:03:40;;;;;;;1.25;0.88;;;16.60;99.90;;;;;;4985846;28;20038;-76
2022/09/11 03:06:15;;;;;;;0.10;0.10;;;16.50;99.90;;;;;;4982400;28;20031;-77
2022/09/11 03:08:43;;;;;;;0.17;0.17;;;16.50;99.90;;;;;;4997681;28;20019;-75
2022/09/11 03:11:09;;;;;;;1.60;1.50;;;16.50;99.90;;;;;;4982480;28;20093;-76
2022/09/11 03:13:38;;;;;;;0.13;0.13;;;16.50;99.90;;;;;;4979011;28;20035;-76
2022/09/11 03:16:04;;;;;;;0.20;0.20;;;16.50;99.90;;;;;;4982271;28;20058;-76
2022/09/11 03:18:30;;;;;;;0.68;0.68;;;16.50;99.90;;;;;;4983182;28;20117;-76
2022/09/11 03:20:59;;;;;;;0.20;0.20;;;16.50;99.90;;;;;;4980022;28;20037;-76
2022/09/11 03:23:24;;;;;;;0.20;0.20;;;16.50;99.90;;;;;;4980883;28;20029;-76
2022/09/11 03:25:50;;;;;;;1.45;1.40;;;16.60;99.90;;;;;;4980366;28;20023;-77
2022/09/11 03:28:21;;;;;;;0.45;0.45;;;16.60;99.90;;;;;;4980835;28;20393;-76
2022/09/11 03:30:48;;;;;;;0.88;0.88;;;16.60;99.90;;;;;;4981920;28;20023;-76
2022/09/11 03:33:16;;;;;;;0.30;0.30;;;16.50;99.90;;;;;;4981906;28;20042;-75
2022/09/11 03:35:42;;;;;;;0.20;0.20;;;16.50;99.90;;;;;;4978099;28;20027;-76
2022/09/11 03:38:07;;;;;;;0.20;0.20;;;16.50;99.90;;;;;;4985841;28;20047;-75
2022/09/11 03:40:33;;;;;;;0.10;0.10;;;16.50;99.90;;;;;;4979845;28;20475;-76
2022/09/11 03:42:59;;;;;;;0.20;0.20;;;16.50;99.90;;;;;;4982821;28;20022;-76
2022/09/11 03:45:24;;;;;;;0.80;0.80;;;16.50;99.90;;;;;;4984235;28;20067;-77
2022/09/11 03:47:52;;;;;;;0.88;0.60;;;16.50;99.90;;;;;;4984073;28;20042;-76
2022/09/11 03:50:18;;;;;;;0.20;0.20;;;16.50;99.90;;;;;;4978460;28;20101;-76
2022/09/11 03:52:44;;;;;;;0.30;0.30;;;16.50;99.90;;;;;;4980103;28;20106;-76
2022/09/11 03:55:10;;;;;;;1.65;0.90;;;16.50;99.90;;;;;;4983149;28;20031;-77
2022/09/11 03:57:39;;;;;;;0.20;0.20;;;16.50;99.90;;;;;;4984562;28;20030;-76
2022/09/11 04:00:06;;;;;;;0.20;0.20;;;16.60;99.90;;;;;;4982198;28;20027;-77
2022/09/11 04:02:31;;;;;;;0.40;0.40;;;16.60;99.90;;;;;;4980920;28;20042;-75
2022/09/11 04:04:57;;;;;;;0.20;0.20;;;16.50;99.90;;;;;;4984976;28;20042;-76
2022/09/11 04:07:26;;;;;;;0.65;0.65;;;16.60;99.90;;;;;;4994453;28;20062;-76
2022/09/11 04:09:54;;;;;;;0.10;0.10;;;16.60;99.90;;;;;;4976222;28;20089;-76
2022/09/11 04:12:20;;;;;;;0.17;0.17;;;16.50;99.90;;;;;;4980718;28;20389;-77
2022/09/11 04:14:47;;;;;;;0.70;0.70;;;16.50;99.90;;;;;;4983805;28;20027;-77
2022/09/11 04:17:12;;;;;;;0.30;0.30;;;16.40;99.90;;;;;;4996433;28;20030;-76
2022/09/11 04:19:40;;;;;;;0.30;0.30;;;16.30;99.90;;;;;;4979120;28;20038;-76
2022/09/11 04:22:07;;;;;;;0.28;0.28;;;16.30;99.90;;;;;;4980522;28;20019;-77
2022/09/11 04:24:33;;;;;;;0.40;0.40;;;16.30;99.90;;;;;;4995407;28;20019;-76
2022/09/11 04:27:02;;;;;;;0.30;0.30;;;16.40;99.90;;;;;;4980121;28;20496;-76
2022/09/11 04:29:31;;;;;;;0.10;0.10;;;16.40;99.90;;;;;;4981522;28;20108;-74
2022/09/11 04:31:57;;;;;;;0.20;0.20;;;16.40;99.90;;;;;;4984087;28;20026;-76
2022/09/11 04:34:28;;;;;;;0.25;0.25;;;16.50;99.90;;;;;;4982187;28;20141;-76
2022/09/11 04:36:58;;;;;;;0.20;0.20;;;16.50;99.90;;;;;;4978234;28;20085;-76
2022/09/11 04:39:23;;;;;;;0.25;0.25;;;16.50;99.90;;;;;;4980559;28;20019;-76
2022/09/11 04:41:53;;;;;;;0.20;0.20;;;16.50;99.90;;;;;;4979299;28;20479;-72
2022/09/11 04:44:21;;;;;;;0.30;0.30;;;16.50;99.90;;;;;;4979547;28;20563;-73
2022/09/11 04:46:52;;;;;;;0.40;0.40;;;16.50;99.90;;;;;;4982845;28;20451;-72
2022/09/11 04:49:20;;;;;;;0.10;0.10;;;16.50;99.90;;;;;;4982404;28;20041;-74
2022/09/11 04:51:48;;;;;;;0.20;0.20;;;16.50;99.90;;;;;;4982464;28;20125;-75
2022/09/11 04:54:16;;;;;;;0.20;0.20;;;16.50;99.90;;;;;;4979891;28;20034;-74
2022/09/11 04:56:45;;;;;;;0.20;0.20;;;16.40;99.90;;;;;;4978839;28;20034;-74
2022/09/11 04:59:12;;;;;;;0.15;0.15;;;16.40;99.90;;;;;;4986420;28;20106;-72
2022/09/11 05:01:41;;;;;;;0.63;0.63;;;16.30;99.90;;;;;;4978905;28;20173;-72
2022/09/11 05:04:09;;;;;;;0.20;0.20;;;16.30;99.90;;;;;;4978527;28;20122;-73
2022/09/11 05:06:37;;;;;;;0.30;0.30;;;16.30;99.90;;;;;;4980108;28;20026;-72
2022/09/11 05:09:05;;;;;;;0.20;0.20;;;16.30;99.90;;;;;;4978753;28;20034;-74
2022/09/11 05:11:33;;;;;;;0.20;0.20;;;16.40;99.90;;;;;;4977758;28;20097;-73
2022/09/11 05:13:59;;;;;;;0.50;0.50;;;16.40;99.90;;;;;;4978389;28;20041;-73
2022/09/11 05:16:28;;;;;;;0.55;0.55;;;16.40;99.90;;;;;;4979594;28;20030;-73
2022/09/11 05:18:55;;;;;;;0.95;0.95;;;16.50;99.90;;;;;;4978959;28;20042;-73
2022/09/11 05:21:25;;;;;;;0.57;0.50;;;16.40;99.90;;;;;;4980543;28;20576;-74
2022/09/11 05:23:58;;;;;;;0.20;0.20;;;16.50;99.90;;;;;;4980033;28;20062;-72
2022/09/11 05:26:29;;;;;;;0.20;0.20;;;16.40;99.90;;;;;;4979330;28;20502;-74
2022/09/11 05:29:03;;;;;;;0.20;0.20;;;16.50;99.90;;;;;;4975983;28;20046;-73
2022/09/11 05:31:30;;;;;;;0.30;0.30;;;16.50;99.90;;;;;;4979288;28;20043;-73
2022/09/11 05:33:59;;;;;;;0.30;0.30;;;16.50;99.90;;;;;;4982260;28;20036;-73
2022/09/11 05:36:29;;;;;;;0.43;0.43;;;16.40;99.90;;;;;;4981170;28;20388;-73
2022/09/11 05:38:56;;;;;;;0.50;0.50;;;16.40;99.90;;;;;;4978996;28;20015;-74
2022/09/11 05:41:23;;;;;;;0.20;0.20;;;16.30;99.90;;;;;;4978662;28;20019;-73
2022/09/11 05:43:51;;;;;;;0.40;0.40;;;16.30;99.90;;;;;;4981466;28;20034;-72
2022/09/11 05:46:18;;;;;;;1.13;1.13;;;16.30;99.90;;;;;;4977098;28;20368;-73
2022/09/11 05:48:44;;;;;;;0.80;0.80;;;16.30;99.90;;;;;;4982055;28;20345;-75
2022/09/11 05:51:20;;;;;;;0.10;0.10;;;16.30;99.90;;;;;;4979158;28;20027;-73
2022/09/11 05:53:49;;;;;;;0.32;0.32;;;16.20;99.90;;;;;;4982216;28;20026;-73
2022/09/11 05:56:20;;;;;;;1.38;1.27;;;16.20;99.90;;;;;;4980809;28;20054;-74
2022/09/11 05:58:47;;;;;;;0.20;0.20;;;16.20;99.90;;;;;;4982324;28;20022;-76
2022/09/11 06:01:18;;;;;;;0.28;0.28;;;16.30;99.90;;;;;;4979465;28;20164;-73
2022/09/11 06:03:46;;;;;;;0.40;0.40;;;16.40;99.90;;;;;;4961378;28;20674;-73
2022/09/11 06:06:12;;;;;;;0.30;0.30;;;16.40;99.90;;;;;;4982628;28;20027;-74
2022/09/11 06:08:41;;;;;;;0.30;0.30;;;16.40;99.90;;;;;;4978713;28;20191;-75
2022/09/11 06:11:07;;;;;;;0.17;0.17;;;16.40;99.90;;;;;;4990771;28;20053;-72
2022/09/11 06:13:42;;;;;;;0.10;0.10;;;16.50;99.90;;;;;;4980747;28;20035;-74
2022/09/11 06:16:09;;;;;;;0.65;0.52;;;16.40;99.90;;;;;;4984729;28;20198;-73
2022/09/11 06:18:35;;;;;;;0.20;0.20;;;16.40;99.90;;;;;;4976728;28;20046;-73
2022/09/11 06:21:06;;;;;;;0.32;0.32;;;16.30;99.90;;;;;;4975993;28;20105;-73
2022/09/11 06:23:33;;;;;;;0.15;0.15;;;16.40;99.90;;;;;;4979474;28;20026;-73
2022/09/11 06:26:08;;;;;;;0.47;0.47;;;16.50;99.90;;;;;;4983556;28;20070;-73
2022/09/11 06:28:35;;;;;;;0.30;0.30;;;16.50;99.90;;;;;;4977498;28;20604;-73
2022/09/11 06:31:05;;;;;;;0.70;0.70;;;16.40;99.90;;;;;;4981536;28;20038;-72
2022/09/11 06:33:36;;;;;;;0.20;0.20;;;16.40;99.90;;;;;;4982124;28;20051;-73
2022/09/11 06:36:04;;;;;;;0.10;0.10;;;16.50;99.90;;;;;;4984427;28;20072;-73
2022/09/11 06:38:30;;;;;;;0.17;0.17;;;16.50;99.90;;;;;;4981138;28;20359;-73
2022/09/11 06:41:01;;;;;;;0.35;0.35;;;16.60;99.90;;;;;;4978723;28;20089;-73
2022/09/11 06:43:27;;;;;;;0.20;0.20;;;16.50;99.90;;;;;;4987712;28;20340;-73
2022/09/11 06:45:52;;;;;;;0.50;0.50;;;16.60;99.90;;;;;;4986883;28;20022;-75
2022/09/11 06:48:18;;;;;;;0.30;0.30;;;16.50;99.90;;;;;;4980189;28;20031;-73
2022/09/11 06:50:44;;;;;;;0.30;0.30;;;16.60;99.90;;;;;;4987620;28;20158;-73
2022/09/11 06:53:13;;;;;;;0.75;0.75;;;16.70;99.90;;;;;;4985717;28;20019;-72
2022/09/11 06:55:39;;;;;;;0.10;0.10;;;16.70;99.90;;;;;;4984029;28;20137;-74
2022/09/11 06:58:07;;;;;;;1.08;1.02;;;16.80;99.90;;;;;;4979294;28;20879;-74
2022/09/11 07:00:35;;;;;;;0.13;0.13;;;16.80;99.90;;;;;;4990479;28;20037;-73
2022/09/11 07:03:02;;;;;;;0.32;0.32;;;16.90;99.90;;;;;;4982606;28;20022;-72
2022/09/11 07:05:30;;;;;;;0.45;0.45;;;16.90;99.90;;;;;;4981380;28;20022;-73
2022/09/11 07:07:56;;;;;;;0.20;0.20;;;16.90;99.90;;;;;;4982707;28;20034;-73
2022/09/11 07:10:23;;;;;;;0.50;0.50;;;16.90;99.90;;;;;;4987700;28;20336;-74
2022/09/11 07:12:53;;;;;;;0.20;0.20;;;17.00;99.90;;;;;;4977790;28;20050;-74
2022/09/11 07:15:19;;;;;;;0.80;0.80;;;17.00;99.90;;;;;;4982156;28;20129;-72
2022/09/11 07:17:44;;;;;;;0.20;0.20;;;17.00;99.90;;;;;;4982187;28;20172;-72
2022/09/11 07:20:10;;;;;;;0.30;0.30;;;17.00;99.90;;;;;;4983830;28;20026;-72
2022/09/11 07:22:36;;;;;;;0.30;0.30;;;17.10;99.90;;;;;;4984243;28;20030;-73
2022/09/11 07:25:01;;;;;;;0.17;0.17;;;17.00;99.90;;;;;;4982732;28;20022;-72
2022/09/11 07:27:28;;;;;;;0.30;0.30;;;17.00;99.90;;;;;;4980081;28;20022;-75
2022/09/11 07:29:54;;;;;;;0.10;0.10;;;17.10;99.90;;;;;;4981598;28;20392;-73
2022/09/11 07:32:20;;;;;;;0.20;0.20;;;17.20;99.90;;;;;;4979913;28;20368;-74
2022/09/11 07:34:47;;;;;;;0.10;0.10;;;17.30;99.90;;;;;;4979615;28;20025;-72
2022/09/11 07:37:13;;;;;;;0.65;0.65;;;17.30;99.90;;;;;;4980981;28;20041;-74
2022/09/11 07:39:39;;;;;;;1.25;1.15;;;17.40;99.90;;;;;;4981232;28;20042;-73
2022/09/11 07:42:08;;;;;;;0.30;0.30;;;17.50;99.90;;;;;;4979944;28;20101;-73
2022/09/11 07:44:34;;;;;;;0.17;0.17;;;17.60;99.90;;;;;;4977173;28;20055;-72
2022/09/11 07:47:03;;;;;;;0.35;0.35;;;17.70;99.90;;;;;;4977112;28;20038;-72
2022/09/11 07:49:29;;;;;;;0.20;0.20;;;17.80;99.90;;;;;;4981551;28;20026;-75
2022/09/11 07:51:58;;;;;;;0.10;0.10;;;17.70;99.90;;;;;;4980903;28;20141;-73
2022/09/11 07:54:27;;;;;;;0.20;0.20;;;17.70;99.90;;;;;;4978964;28;20113;-73
2022/09/11 07:56:53;;;;;;;1.30;1.20;;;17.90;99.90;;;;;;4979885;28;20317;-74
2022/09/11 07:59:19;;;;;;;0.30;0.30;;;18.00;99.90;;;;;;4980475;28;20038;-72
2022/09/11 08:01:44;;;;;;;0.30;0.30;;;18.10;99.90;;;;;;4985545;28;21349;-73
2022/09/11 08:04:13;;;;;;;0.30;0.30;;;18.10;99.90;;;;;;4984757;28;20058;-72
2022/09/11 08:06:38;;;;;;;0.90;0.90;;;18.10;99.90;;;;;;4980781;28;20030;-75
2022/09/11 08:09:11;;;;;;;1.65;1.42;;;18.10;99.90;;;;;;4985538;28;20037;-73
2022/09/11 08:11:47;;;;;;;1.77;0.85;;;18.10;99.90;;;;;;4984318;28;20038;-73
2022/09/11 08:14:13;;;;;;;0.20;0.20;;;18.10;99.90;;;;;;4987556;28;20015;-73
2022/09/11 08:16:40;;;;;;;0.30;0.30;;;18.10;99.90;;;;;;4988885;28;20034;-74
2022/09/11 08:19:13;;;;;;;0.57;0.57;;;18.10;99.90;;;;;;4988010;28;20149;-74
2022/09/11 08:21:41;;;;;;;0.40;0.40;;;18.20;99.90;;;;;;4985717;28;20132;-77
2022/09/11 08:24:06;;;;;;;0.10;0.10;;;18.30;99.90;;;;;;4986986;28;20034;-76
2022/09/11 08:26:38;;;;;;;0.30;0.30;;;18.40;99.90;;;;;;4985469;28;20027;-76
2022/09/11 08:29:04;;;;;;;0.45;0.45;;;18.40;99.90;;;;;;4987343;28;20300;-75
2022/09/11 08:31:33;;;;;;;1.27;1.20;;;18.40;99.90;;;;;;4987188;28;20031;-73
2022/09/11 08:33:59;;;;;;;1.60;1.50;;;18.40;99.90;;;;;;4979614;28;20034;-75
2022/09/11 08:36:25;;;;;;;0.25;0.25;;;18.40;99.90;;;;;;4988993;28;20547;-74
2022/09/11 08:38:52;;;;;;;0.40;0.40;;;18.40;99.90;;;;;;4984896;28;20035;-73
2022/09/11 08:41:55;;;;;;;0.20;0.20;;;18.40;99.90;;;;;;4980716;28;20031;-75
2022/09/11 08:44:32;;;;;;;1.00;0.95;;;18.40;99.90;;;;;;4971990;28;20628;-74
2022/09/11 08:47:07;;;;;;;0.63;0.63;;;18.40;99.90;;;;;;4980272;28;20043;-73
2022/09/11 08:49:42;;;;;;;0.30;0.30;;;18.30;99.90;;;;;;4964980;28;20568;-73
2022/09/11 08:52:11;;;;;;;0.20;0.20;;;18.30;99.90;;;;;;4980401;28;20399;-74
2022/09/11 08:54:40;;;;;;;0.20;0.20;;;18.50;99.90;;;;;;4979774;28;20031;-73
2022/09/11 08:57:15;;;;;;;0.40;0.40;;;18.70;99.90;;;;;;4978539;28;20042;-75
2022/09/11 09:00:17;;;;;;;0.28;0.28;;;18.90;99.90;;;;;;4978213;28;20069;-72
2022/09/11 09:02:49;;;;;;;0.20;0.20;;;18.90;99.90;;;;;;4979904;28;20061;-74
2022/09/11 09:05:23;;;;;;;1.38;0.80;;;19.00;99.90;;;;;;4976819;28;20026;-75
2022/09/11 09:08:09;;;;;;;0.70;0.70;;;18.90;99.90;;;;;;4984542;28;20407;-73
2022/09/11 09:10:47;;;;;;;0.55;0.55;;;18.80;99.90;;;;;;4983392;28;20033;-73
2022/09/11 09:13:44;;;;;;;0.50;0.50;;;18.90;99.90;;;;;;4983320;28;20034;-73
2022/09/11 09:16:24;;;;;;;0.30;0.30;;;18.80;99.90;;;;;;4979686;28;20037;-73
2022/09/11 09:19:02;;;;;;;0.75;0.75;;;18.70;99.90;;;;;;4980131;28;20440;-74
2022/09/11 09:21:36;;;;;;;0.28;0.28;;;18.80;99.90;;;;;;4978323;28;20054;-74
2022/09/11 09:24:18;;;;;;;0.28;0.28;;;18.70;99.90;;;;;;4982132;28;20495;-72
2022/09/11 09:26:52;;;;;;;0.20;0.20;;;18.70;99.90;;;;;;4980895;28;20066;-72
2022/09/11 09:29:23;;;;;;;0.55;0.55;;;18.70;99.90;;;;;;4999113;28;20089;-75
2022/09/11 09:31:58;;;;;;;0.85;0.47;;;18.70;99.90;;;;;;4983471;28;20101;-73
2022/09/11 09:34:31;;;;;;;0.10;0.10;;;18.80;99.90;;;;;;4980535;28;20110;-73
2022/09/11 09:37:16;;;;;;;0.20;0.20;;;18.80;99.90;;;;;;4982164;28;20037;-73
2022/09/11 09:39:42;;;;;;;1.38;1.27;;;18.90;99.90;;;;;;4978242;28;20045;-74
2022/09/11 09:42:19;;;;;;;6.20;3.53;;;19.00;99.90;;;;;;4979162;28;20445;-74
2022/09/11 09:45:19;;;;;;;1.10;1.10;;;18.90;99.90;;;;;;4980644;28;20023;-73
2022/09/11 09:47:47;;;;;;;0.32;0.32;;;18.80;99.90;;;;;;4981297;28;20027;-75
2022/09/11 09:50:19;;;;;;;0.50;0.50;;;18.70;99.90;;;;;;4985295;28;20018;-73
2022/09/11 09:52:45;;;;;;;0.20;0.20;;;18.70;99.90;;;;;;4985838;28;20487;-73
2022/09/11 09:55:15;;;;;;;0.20;0.20;;;18.70;99.90;;;;;;4979067;28;20027;-73
2022/09/11 09:57:42;;;;;;;0.50;0.50;;;18.70;99.90;;;;;;4983623;28;20083;-73
2022/09/11 10:00:11;;;;;;;0.55;0.55;;;18.80;99.90;;;;;;4985657;28;20026;-73
2022/09/11 10:02:41;;;;;;;0.52;0.52;;;18.90;99.90;;;;;;4985508;28;20030;-74
2022/09/11 10:05:16;;;;;;;1.42;0.35;;;18.90;99.90;;;;;;4995445;28;20077;-73
2022/09/11 10:08:00;;;;;;;0.28;0.28;;;18.90;99.90;;;;;;4993901;28;20046;-78
2022/09/11 10:10:28;;;;;;;0.20;0.20;;;18.80;99.90;;;;;;5007414;28;20022;-75
2022/09/11 10:12:58;;;;;;;0.20;0.20;;;18.80;99.90;;;;;;4990362;28;20081;-75
2022/09/11 10:15:24;;;;;;;3.30;2.83;;;19.00;99.90;;;;;;4982095;28;20042;-75
2022/09/11 10:17:51;;;;;;;0.22;0.22;;;19.00;99.90;;;;;;4985596;28;20041;-73
2022/09/11 10:20:24;;;;;;;0.80;0.80;;;19.00;99.90;;;;;;4984620;28;20089;-72
2022/09/11 10:22:54;;;;;;;0.30;0.30;;;19.10;99.90;;;;;;4980579;28;20030;-74
2022/09/11 10:25:29;;;;;;;0.82;0.82;;;19.20;99.90;;;;;;4985446;28;20030;-72
2022/09/11 10:28:18;;;;;;;0.20;0.20;;;19.20;99.90;;;;;;4983297;28;20018;-73
2022/09/11 10:31:02;;;;;;;0.30;0.30;;;19.30;99.90;;;;;;4982496;28;20452;-73
2022/09/11 10:33:30;;;;;;;1.23;1.23;;;19.40;99.90;;;;;;4984017;28;20026;-74
2022/09/11 10:35:59;;;;;;;0.30;0.30;;;19.40;99.90;;;;;;4986250;28;20023;-74
2022/09/11 10:38:35;;;;;;;0.35;0.35;;;19.40;99.90;;;;;;4985452;28;20037;-76
2022/09/11 10:41:12;;;;;;;0.75;0.75;;;19.50;99.90;;;;;;5000205;28;20022;-74
2022/09/11 10:44:00;;;;;;;0.20;0.20;;;19.60;99.90;;;;;;4987468;28;20033;-74
2022/09/11 10:46:33;;;;;;;3.63;1.52;;;19.70;99.90;;;;;;4984149;28;20045;-72
2022/09/11 10:49:12;;;;;;;1.27;1.17;;;19.70;99.90;;;;;;4983496;28;20101;-74
2022/09/11 10:51:55;;;;;;;0.22;0.22;;;19.80;99.90;;;;;;4984949;28;20565;-73
2022/09/11 10:54:30;;;;;;;1.35;1.35;;;19.80;99.90;;;;;;4982325;28;20587;-73
2022/09/11 10:56:59;;;;;;;0.20;0.20;;;19.70;99.90;;;;;;4983083;28;20022;-74
2022/09/11 10:59:33;;;;;;;0.20;0.20;;;19.70;99.90;;;;;;4989510;28;20113;-73
2022/09/11 11:02:02;;;;;;;0.57;0.57;;;19.70;99.90;;;;;;4984187;28;20503;-74
2022/09/11 11:04:33;;;;;;;0.10;0.10;;;19.70;99.90;;;;;;4985627;28;20049;-74
2022/09/11 11:07:13;;;;;;;0.32;0.32;;;19.60;99.90;;;;;;4985421;28;20084;-73
2022/09/11 11:09:56;;;;;;;;;;;19.70;99.90;;;;;;4985198;28;20133;-73
2022/09/11 11:12:49;;;;;;;0.20;0.20;;;19.70;99.90;;;;;;4979774;28;19913;-72
2022/09/11 11:15:29;;;;;;;0.20;0.20;;;19.70;99.90;;;;;;4980277;28;20088;-73
2022/09/11 11:18:50;;;;;;;0.30;0.30;;;19.60;99.90;;;;;;4982503;28;20405;-73
2022/09/11 11:21:37;;;;;;;1.05;0.95;;;19.60;99.90;;;;;;4984064;28;20034;-74
2022/09/11 11:24:04;;;;;;;0.20;0.20;;;19.40;99.90;;;;;;4985659;28;20053;-73
2022/09/11 11:27:02;;;;;;;0.20;0.20;;;19.40;99.90;;;;;;4980502;28;20030;-74
2022/09/11 11:29:49;;;;;;;0.73;0.73;;;19.40;99.90;;;;;;4969467;28;20120;-74
2022/09/11 11:32:35;;;;;;;0.50;0.50;;;19.50;99.90;;;;;;4985031;28;20022;-72
2022/09/11 11:35:18;;;;;;;0.38;0.38;;;19.70;99.90;;;;;;4982368;28;20455;-73
2022/09/11 11:37:46;;;;;;;0.20;0.20;;;19.60;99.90;;;;;;4978821;28;20069;-72
2022/09/11 11:40:35;;;;;;;0.20;0.20;;;19.70;99.90;;;;;;4983363;28;20034;-76
2022/09/11 11:43:10;;;;;;;0.50;0.50;;;19.80;99.90;;;;;;4984930;28;20026;-73
2022/09/11 11:46:01;;;;;;;0.38;0.38;;;19.70;99.90;;;;;;4978534;28;20438;-73
2022/09/11 11:48:50;;;;;;;1.10;1.10;;;19.70;99.90;;;;;;4993480;28;20030;-73
2022/09/11 11:51:24;;;;;;;1.25;1.25;;;19.70;99.90;;;;;;4983489;28;20050;-72
2022/09/11 11:54:12;;;;;;;0.95;0.95;;;19.60;99.90;;;;;;4981900;28;20110;-73
2022/09/11 11:57:13;;;;;;;0.20;0.20;;;19.80;99.90;;;;;;4991961;28;20041;-73
2022/09/11 11:59:53;;;;;;;0.20;0.20;;;20.00;99.90;;;;;;4981379;28;20395;-75
2022/09/11 12:02:50;;;;;;;0.40;0.40;;;20.10;99.90;;;;;;4980628;28;20041;-72
2022/09/11 12:05:25;;;;;;;0.40;0.40;;;20.20;99.90;;;;;;4979946;28;20106;-74
2022/09/11 12:07:52;;;;;;;0.20;0.20;;;20.30;99.90;;;;;;4981183;28;20041;-75
2022/09/11 12:10:50;;;;;;;0.55;0.55;;;20.40;99.90;;;;;;4988285;28;20022;-73
2022/09/11 12:13:19;;;;;;;0.73;0.73;;;20.70;99.90;;;;;;4985901;28;20057;-75
2022/09/11 12:16:05;;;;;;;0.38;0.38;;;20.70;99.90;;;;;;4980282;28;20056;-74
2022/09/11 12:18:31;;;;;;;0.40;0.40;;;20.80;99.90;;;;;;4978078;28;20040;-72
2022/09/11 12:21:23;;;;;;;0.45;0.45;;;21.20;99.90;;;;;;4994919;28;20546;-75
2022/09/11 12:23:48;;;;;;;0.30;0.30;;;21.50;99.90;;;;;;4978193;28;20039;-72
2022/09/11 12:26:24;;;;;;;0.45;0.45;;;22.20;99.90;;;;;;4979317;28;20038;-72
2022/09/11 12:29:36;;;;;;;0.68;0.68;;;22.50;99.90;;;;;;4982840;28;20073;-72
2022/09/11 12:32:05;;;;;;;0.38;0.38;;;22.60;99.90;;;;;;4975709;28;20526;-72
2022/09/11 12:34:37;;;;;;;0.30;0.30;;;22.70;99.90;;;;;;4982149;28;20066;-73
2022/09/11 12:37:10;;;;;;;0.65;0.65;;;23.10;99.90;;;;;;4979860;28;20349;-72
2022/09/11 12:39:46;;;;;;;0.35;0.35;;;23.80;99.90;;;;;;4987555;28;20694;-72
2022/09/11 12:42:30;;;;;;;0.85;0.85;;;24.40;99.90;;;;;;4983340;28;20031;-74
2022/09/11 12:44:58;;;;;;;0.30;0.30;;;24.30;99.90;;;;;;4980469;28;20117;-71
2022/09/11 12:47:26;;;;;;;1.67;1.38;;;24.00;99.90;;;;;;4979896;28;20040;-73
2022/09/11 12:50:23;;;;;;;1.00;1.00;;;24.20;99.90;;;;;;4983636;28;20030;-72
2022/09/11 12:52:53;;;;;;;0.50;0.50;;;24.10;99.90;;;;;;4976150;28;20483;-73
2022/09/11 12:55:48;;;;;;;0.60;0.60;;;24.80;99.90;;;;;;4983072;28;20045;-73
2022/09/11 12:58:20;;;;;;;1.08;1.02;;;24.90;99.90;;;;;;4978342;28;20046;-72
2022/09/11 13:01:02;;;;;;;0.30;0.30;;;24.60;99.90;;;;;;4983608;28;20598;-73
2022/09/11 13:03:28;;;;;;;0.60;0.60;;;25.00;99.90;;;;;;4982458;28;20407;-73
2022/09/11 13:06:10;;;;;;;0.35;0.35;;;25.10;99.90;;;;;;4985312;28;20030;-74
2022/09/11 13:09:01;;;;;;;0.60;0.60;;;25.40;99.90;;;;;;4978253;28;20053;-73
2022/09/11 13:11:38;;;;;;;0.52;0.52;;;25.50;99.90;;;;;;4979523;28;20026;-72
2022/09/11 13:14:25;;;;;;;0.85;0.85;;;25.90;99.90;;;;;;4980507;28;20062;-71
2022/09/11 13:16:57;;;;;;;0.50;0.50;;;26.10;99.90;;;;;;4979114;28;20097;-73
2022/09/11 13:19:30;;;;;;;0.85;0.85;;;25.90;99.90;;;;;;4979189;28;20030;-73